This is the latest recevied weather packets stored in our database for station/object KC4LZN. If no packets are shown the sender has not sent any weather packets the latest 1 day(s).
| Time | Temp. | Humidity | Pressure | Rain* | Wind** | Luminosity | Snow |
|---|---|---|---|---|---|---|---|
| 1778011406 | 30° C | 39% | 1015.7 hPa | 0 mm | 0.89 m/s, 142° | 573 W/m² | - |
| 1778011101 | 30° C | 39% | 1015.7 hPa | 0 mm | 1.34 m/s, 121° | 570 W/m² | - |
| 1778010799 | 30° C | 39% | 1015.8 hPa | 0 mm | 1.34 m/s, 358° | 639 W/m² | - |
| 1778010496 | 30° C | 39% | 1015.9 hPa | 0 mm | 2.24 m/s, 54° | 621 W/m² | - |
| 1778010193 | 30° C | 39% | 1015.9 hPa | 0 mm | 2.68 m/s, 18° | 610 W/m² | - |
| 1778009888 | 30.56° C | 39% | 1015.8 hPa | 0 mm | 1.79 m/s, 76° | 617 W/m² | - |
| 1778009587 | 30.56° C | 40% | 1015.9 hPa | 0 mm | 0.89 m/s, 234° | 605 W/m² | - |
| 1778009284 | 30° C | 41% | 1016.1 hPa | 0 mm | 0.89 m/s, 320° | 638 W/m² | - |
| 1778008982 | 30° C | 42% | 1016.1 hPa | 0 mm | 1.79 m/s, 25° | 647 W/m² | - |
| 1778008679 | 30° C | 44% | 1016.2 hPa | 0 mm | 0.89 m/s, 8° | 697 W/m² | - |
| 1778008378 | 29.44° C | 45% | 1016.1 hPa | 0 mm | 0 m/s | 558 W/m² | - |
| 1778008074 | 30° C | 42% | 1016.2 hPa | 0 mm | 0.89 m/s, 46° | 722 W/m² | - |
| 1778007769 | 31.11° C | 42% | 1016.6 hPa | 0 mm | 0.45 m/s, 73° | 701 W/m² | - |
| 1778007466 | 30° C | 44% | 1016.5 hPa | 0 mm | 0.45 m/s, 281° | 817 W/m² | - |
| 1778007162 | 28.89° C | 46% | 1016.6 hPa | 0 mm | 0.45 m/s, 70° | 759 W/m² | - |
| 1778006858 | 28.89° C | 46% | 1016.7 hPa | 0 mm | 1.34 m/s, 75° | 209 W/m² | - |
| 1778006556 | 30.56° C | 45% | 1016.5 hPa | 0 mm | 2.24 m/s, 48° | 575 W/m² | - |
| 1778006252 | 30.56° C | 43% | 1016.6 hPa | 0 mm | 2.68 m/s, 187° | 838 W/m² | - |
| 1778005951 | 29.44° C | 48% | 1016.8 hPa | 0 mm | 1.79 m/s, 257° | 892 W/m² | - |
| 1778005646 | 29.44° C | 45% | 1016.8 hPa | 0 mm | 0.89 m/s, 291° | 910 W/m² | - |
| 1778005343 | 29.44° C | 46% | 1016.8 hPa | 0 mm | 0.45 m/s, 114° | 802 W/m² | - |
| 1778005039 | 28.89° C | 46% | 1016.7 hPa | 0 mm | 0.45 m/s, 309° | 821 W/m² | - |
| 1778004737 | 28.33° C | 47% | 1016.7 hPa | 0 mm | 1.79 m/s, 305° | 921 W/m² | - |
| 1778004433 | 28.33° C | 47% | 1017.1 hPa | 0 mm | 1.79 m/s, 337° | 457 W/m² | - |
| 1778004130 | 28.33° C | 47% | 1017.1 hPa | 0 mm | 1.79 m/s, 2° | 296 W/m² | - |
* Rain latest hour (hover to see other rain measurements)
** Current wind speed in m/s (hover to see current wind gust speed)